Warden, WA (98857)

9:02 PM PDT on August 27, 2014 (GMT -0700)
www.mlrcm.org | Change Station
CLOSE
Current Station
Personal Weather Station
Location: Moses Lake, WA
Elevation: 1158 ft
Nearby Weather Stations

Elev 1158 ft 47.07 °N, 119.26 °W | Updated 2 seconds ago

Clear
Clear
80.9 °F
Feels Like 81 °F
N
7.2
Wind Variable Wind from South
Gusts 8.0 mph

Today
High -- | Low -- °F
--% Chance of Precip.
Yesterday
High -- | Low -- °F
Precip. -- in
6:09 AM 7:45 PM
Waxing Crescent, 6% visible
Pressure 29.85 in
Visibility 10.0 miles
Clouds Clear
Heat Index 81 °F
Dew Point 57 °F
Humidity 44%
Rainfall 0.00 in
Snow Depth Not available.
UV 0 out of 12
Pollen 4.80 out of 12
Air Quality Not available.
Flu Activity Not available.
METAR KMWH 280352Z 21006KT 10SM CLR 30/11 A2988 RMK AO2 SLP108 T03000111 $

More Conditions Fewer Conditions

Pressure 29.85 in
Visibility 10.0 miles
Clouds Clear
Heat Index 81 °F
Dew Point 57 °F
Humidity 44%
Rainfall 0.00 in
Snow Depth Not available.
UV 0 out of 12
Pollen 4.80 out of 12
Air Quality Not available.
Flu Activity Not available.
METAR KMWH 280352Z 21006KT 10SM CLR 30/11 A2988 RMK AO2 SLP108 T03000111 $

More Conditions Fewer Conditions

10-Day Weather Forecast

Almanac

Astronomy

Aug. 27, 2014 Rise Set
Actual Time 6:09 AM PDT 7:45 PM PDT
Civil Twilight 5:37 AM PDT 8:17 PM PDT
Nautical Twilight 4:58 AM PDT 8:55 PM PDT
Astronomical Twilight 4:16 AM PDT 9:37 PM PDT
Moon 8:20 AM PDT (8/27) 8:27 PM PDT (8/27)
Length of Visible Light 14h 39m
Length of Day
13h 35m
Tomorrow will be 3m 11s shorter.
Waxing Crescent, 6% of the Moon is Illuminated
Aug 28
Waxing Crescent
Sep 2
First Quarter
Sep 8
Full
Sep 15
Last Quarter
Sep 24
New

Today's Extremes

State Highs State Lows

Community

WunderPhotos

Upload Photos

1,747,900 photos uploaded!

Nearby

Snow Depth

Station Depth Elevation
Trough 0 in 5300 ft
Upper Wheeler 0 in 4400 ft
Grouse Camp 0 in 5380 ft
Spruce Springs 0 in 5700 ft
Sasse Ridge 0 in 4200 ft

Earthquake Activity

City Distance Mag. Time & Date
No recent earthquake activity has been reported nearby.
Minimum magnitude displayed is 2.5.

Coastal Water Temperatures

Place Temperature
No Stations Reporting

Nearby Weather Stations